sensor_id;sensor_type;location;lat;lon;timestamp;temperature;humidity
2030;DHT22;1020;48.854;8.830;2022-11-15T00:02:03;9.30;56.80
2030;DHT22;1020;48.854;8.830;2022-11-15T00:04:30;9.30;62.10
2030;DHT22;1020;48.854;8.830;2022-11-15T00:06:58;9.20;70.50
2030;DHT22;1020;48.854;8.830;2022-11-15T00:09:25;9.30;59.10
2030;DHT22;1020;48.854;8.830;2022-11-15T00:11:52;9.40;47.90
2030;DHT22;1020;48.854;8.830;2022-11-15T00:14:18;9.40;46.20
2030;DHT22;1020;48.854;8.830;2022-11-15T00:16:45;9.50;37.80
2030;DHT22;1020;48.854;8.830;2022-11-15T00:19:12;9.40;41.30
2030;DHT22;1020;48.854;8.830;2022-11-15T00:21:39;9.40;39.30
2030;DHT22;1020;48.854;8.830;2022-11-15T00:24:07;9.40;45.60
2030;DHT22;1020;48.854;8.830;2022-11-15T00:26:34;9.30;48.90
2030;DHT22;1020;48.854;8.830;2022-11-15T00:29:01;9.30;48.70
2030;DHT22;1020;48.854;8.830;2022-11-15T00:31:28;9.30;42.10
2030;DHT22;1020;48.854;8.830;2022-11-15T00:33:54;9.30;41.30
2030;DHT22;1020;48.854;8.830;2022-11-15T00:36:21;9.40;37.90
2030;DHT22;1020;48.854;8.830;2022-11-15T00:38:48;9.40;30.10
2030;DHT22;1020;48.854;8.830;2022-11-15T00:41:16;9.40;29.50
2030;DHT22;1020;48.854;8.830;2022-11-15T00:43:43;9.30;27.90
2030;DHT22;1020;48.854;8.830;2022-11-15T00:46:10;9.20;29.00
2030;DHT22;1020;48.854;8.830;2022-11-15T00:48:37;9.10;47.20
2030;DHT22;1020;48.854;8.830;2022-11-15T00:51:04;9.20;44.80
2030;DHT22;1020;48.854;8.830;2022-11-15T00:53:30;9.10;50.60
2030;DHT22;1020;48.854;8.830;2022-11-15T00:55:57;9.00;66.70
2030;DHT22;1020;48.854;8.830;2022-11-15T00:58:25;8.90;62.50
2030;DHT22;1020;48.854;8.830;2022-11-15T01:00:52;8.90;75.50
2030;DHT22;1020;48.854;8.830;2022-11-15T01:03:20;8.90;76.80
2030;DHT22;1020;48.854;8.830;2022-11-15T01:05:47;8.90;73.80
2030;DHT22;1020;48.854;8.830;2022-11-15T01:08:14;8.80;79.50
2030;DHT22;1020;48.854;8.830;2022-11-15T01:10:41;8.80;79.40
2030;DHT22;1020;48.854;8.830;2022-11-15T01:13:08;8.80;80.90
2030;DHT22;1020;48.854;8.830;2022-11-15T01:15:39;8.70;87.20
2030;DHT22;1020;48.854;8.830;2022-11-15T01:18:06;8.70;93.70
2030;DHT22;1020;48.854;8.830;2022-11-15T01:20:33;8.70;93.90
2030;DHT22;1020;48.854;8.830;2022-11-15T01:23:00;8.70;93.00
2030;DHT22;1020;48.854;8.830;2022-11-15T01:25:27;8.80;92.60
2030;DHT22;1020;48.854;8.830;2022-11-15T01:27:53;8.80;89.80
2030;DHT22;1020;48.854;8.830;2022-11-15T01:30:20;8.80;89.00
2030;DHT22;1020;48.854;8.830;2022-11-15T01:32:48;8.70;91.20
2030;DHT22;1020;48.854;8.830;2022-11-15T01:35:15;8.70;92.10
2030;DHT22;1020;48.854;8.830;2022-11-15T01:37:42;8.70;91.00
2030;DHT22;1020;48.854;8.830;2022-11-15T01:40:09;8.70;95.40
2030;DHT22;1020;48.854;8.830;2022-11-15T01:42:36;8.60;99.90
2030;DHT22;1020;48.854;8.830;2022-11-15T01:45:04;8.60;99.90
2030;DHT22;1020;48.854;8.830;2022-11-15T01:47:34;8.50;99.90
2030;DHT22;1020;48.854;8.830;2022-11-15T01:50:08;8.50;99.90
2030;DHT22;1020;48.854;8.830;2022-11-15T01:52:37;8.50;99.90
2030;DHT22;1020;48.854;8.830;2022-11-15T01:55:07;8.50;99.90
2030;DHT22;1020;48.854;8.830;2022-11-15T01:57:34;8.40;99.90
2030;DHT22;1020;48.854;8.830;2022-11-15T02:00:04;8.40;99.90
2030;DHT22;1020;48.854;8.830;2022-11-15T02:02:32;8.40;99.90
2030;DHT22;1020;48.854;8.830;2022-11-15T02:04:59;8.40;99.90
2030;DHT22;1020;48.854;8.830;2022-11-15T02:07:28;8.40;99.90
2030;DHT22;1020;48.854;8.830;2022-11-15T02:09:56;8.50;99.90
2030;DHT22;1020;48.854;8.830;2022-11-15T02:12:24;8.50;99.90
2030;DHT22;1020;48.854;8.830;2022-11-15T02:14:53;8.60;99.90
2030;DHT22;1020;48.854;8.830;2022-11-15T02:20:51;8.80;99.60
2030;DHT22;1020;48.854;8.830;2022-11-15T02:23:45;8.80;99.40
2030;DHT22;1020;48.854;8.830;2022-11-15T02:29:23;8.70;99.90
2030;DHT22;1020;48.854;8.830;2022-11-15T02:31:59;8.60;99.90
2030;DHT22;1020;48.854;8.830;2022-11-15T02:34:35;8.60;99.90
2030;DHT22;1020;48.854;8.830;2022-11-15T02:37:15;8.50;99.90
2030;DHT22;1020;48.854;8.830;2022-11-15T02:39:49;8.50;99.90
2030;DHT22;1020;48.854;8.830;2022-11-15T02:42:21;8.40;99.90
2030;DHT22;1020;48.854;8.830;2022-11-15T02:45:09;8.40;99.90
2030;DHT22;1020;48.854;8.830;2022-11-15T02:47:44;8.40;99.90
2030;DHT22;1020;48.854;8.830;2022-11-15T02:50:14;8.40;99.90
2030;DHT22;1020;48.854;8.830;2022-11-15T02:52:45;8.40;99.90
2030;DHT22;1020;48.854;8.830;2022-11-15T02:55:29;8.50;99.90
2030;DHT22;1020;48.854;8.830;2022-11-15T02:58:09;8.50;99.90
2030;DHT22;1020;48.854;8.830;2022-11-15T03:00:41;8.40;99.90
2030;DHT22;1020;48.854;8.830;2022-11-15T03:03:29;8.50;99.90
2030;DHT22;1020;48.854;8.830;2022-11-15T03:06:09;8.60;99.90
2030;DHT22;1020;48.854;8.830;2022-11-15T03:08:49;8.60;99.90
2030;DHT22;1020;48.854;8.830;2022-11-15T03:11:19;8.60;99.90
2030;DHT22;1020;48.854;8.830;2022-11-15T03:13:52;8.70;97.40
2030;DHT22;1020;48.854;8.830;2022-11-15T03:16:25;8.70;98.10
2030;DHT22;1020;48.854;8.830;2022-11-15T03:18:57;8.70;97.30
2030;DHT22;1020;48.854;8.830;2022-11-15T03:21:28;8.70;97.40
2030;DHT22;1020;48.854;8.830;2022-11-15T03:23:58;8.80;92.50
2030;DHT22;1020;48.854;8.830;2022-11-15T03:26:28;8.80;85.30
2030;DHT22;1020;48.854;8.830;2022-11-15T03:29:00;8.80;78.40
2030;DHT22;1020;48.854;8.830;2022-11-15T03:31:30;8.90;68.10
2030;DHT22;1020;48.854;8.830;2022-11-15T03:34:19;8.90;67.30
2030;DHT22;1020;48.854;8.830;2022-11-15T03:36:49;9.00;48.20
2030;DHT22;1020;48.854;8.830;2022-11-15T03:39:17;9.00;54.20
2030;DHT22;1020;48.854;8.830;2022-11-15T03:41:48;8.90;56.40
2030;DHT22;1020;48.854;8.830;2022-11-15T03:44:21;9.00;53.70
2030;DHT22;1020;48.854;8.830;2022-11-15T03:46:58;9.00;49.10
2030;DHT22;1020;48.854;8.830;2022-11-15T03:49:32;9.00;47.90
2030;DHT22;1020;48.854;8.830;2022-11-15T03:52:00;9.00;45.00
2030;DHT22;1020;48.854;8.830;2022-11-15T03:54:28;9.00;40.10
2030;DHT22;1020;48.854;8.830;2022-11-15T03:56:55;9.00;42.20
2030;DHT22;1020;48.854;8.830;2022-11-15T03:59:22;9.00;35.40
2030;DHT22;1020;48.854;8.830;2022-11-15T04:01:48;9.00;40.50
2030;DHT22;1020;48.854;8.830;2022-11-15T04:04:15;9.00;41.40
2030;DHT22;1020;48.854;8.830;2022-11-15T04:06:43;9.00;44.40
2030;DHT22;1020;48.854;8.830;2022-11-15T04:09:10;8.90;44.30
2030;DHT22;1020;48.854;8.830;2022-11-15T04:11:37;8.90;43.90
2030;DHT22;1020;48.854;8.830;2022-11-15T04:14:04;8.90;42.00
2030;DHT22;1020;48.854;8.830;2022-11-15T04:16:30;9.00;37.90
2030;DHT22;1020;48.854;8.830;2022-11-15T04:18:57;9.00;30.30
2030;DHT22;1020;48.854;8.830;2022-11-15T04:21:43;9.10;32.20
2030;DHT22;1020;48.854;8.830;2022-11-15T04:24:27;9.10;13.80
2030;DHT22;1020;48.854;8.830;2022-11-15T04:26:53;9.20;14.50
2030;DHT22;1020;48.854;8.830;2022-11-15T04:29:20;9.20;7.10
2030;DHT22;1020;48.854;8.830;2022-11-15T04:32:02;9.10;11.10
2030;DHT22;1020;48.854;8.830;2022-11-15T04:34:29;9.10;15.40
2030;DHT22;1020;48.854;8.830;2022-11-15T04:36:57;9.10;12.60
2030;DHT22;1020;48.854;8.830;2022-11-15T04:39:40;9.20;7.30
2030;DHT22;1020;48.854;8.830;2022-11-15T04:42:08;9.20;14.20
2030;DHT22;1020;48.854;8.830;2022-11-15T04:44:34;9.10;6.80
2030;DHT22;1020;48.854;8.830;2022-11-15T04:47:02;9.10;8.10
2030;DHT22;1020;48.854;8.830;2022-11-15T04:49:28;9.10;11.50
2030;DHT22;1020;48.854;8.830;2022-11-15T04:51:57;9.20;8.40
2030;DHT22;1020;48.854;8.830;2022-11-15T04:54:23;9.10;11.10
2030;DHT22;1020;48.854;8.830;2022-11-15T04:56:50;9.10;19.50
2030;DHT22;1020;48.854;8.830;2022-11-15T04:59:17;9.00;39.90
2030;DHT22;1020;48.854;8.830;2022-11-15T05:01:44;9.00;45.50
2030;DHT22;1020;48.854;8.830;2022-11-15T05:04:10;9.00;41.20
2030;DHT22;1020;48.854;8.830;2022-11-15T05:06:46;9.00;41.50
2030;DHT22;1020;48.854;8.830;2022-11-15T05:09:14;8.90;51.20
2030;DHT22;1020;48.854;8.830;2022-11-15T05:11:41;8.90;56.50
2030;DHT22;1020;48.854;8.830;2022-11-15T05:14:08;8.90;55.20
2030;DHT22;1020;48.854;8.830;2022-11-15T05:16:35;8.90;55.20
2030;DHT22;1020;48.854;8.830;2022-11-15T05:19:02;8.90;63.30
2030;DHT22;1020;48.854;8.830;2022-11-15T05:21:29;8.90;50.10
2030;DHT22;1020;48.854;8.830;2022-11-15T05:23:56;8.90;49.50
2030;DHT22;1020;48.854;8.830;2022-11-15T05:26:25;9.00;40.30
2030;DHT22;1020;48.854;8.830;2022-11-15T05:28:52;9.00;36.60
2030;DHT22;1020;48.854;8.830;2022-11-15T05:31:20;9.00;30.80
2030;DHT22;1020;48.854;8.830;2022-11-15T05:33:49;9.00;33.40
2030;DHT22;1020;48.854;8.830;2022-11-15T05:36:19;9.00;33.80
2030;DHT22;1020;48.854;8.830;2022-11-15T05:38:48;9.10;34.90
2030;DHT22;1020;48.854;8.830;2022-11-15T05:41:15;9.00;33.10
2030;DHT22;1020;48.854;8.830;2022-11-15T05:43:45;9.00;39.70
2030;DHT22;1020;48.854;8.830;2022-11-15T05:46:13;9.10;34.60
2030;DHT22;1020;48.854;8.830;2022-11-15T05:48:42;9.10;27.30
2030;DHT22;1020;48.854;8.830;2022-11-15T05:51:12;9.20;23.30
2030;DHT22;1020;48.854;8.830;2022-11-15T05:53:40;9.20;34.80
2030;DHT22;1020;48.854;8.830;2022-11-15T05:56:09;9.10;33.90
2030;DHT22;1020;48.854;8.830;2022-11-15T05:58:37;9.10;34.70
2030;DHT22;1020;48.854;8.830;2022-11-15T06:01:05;9.10;38.10
2030;DHT22;1020;48.854;8.830;2022-11-15T06:03:32;9.20;30.30
2030;DHT22;1020;48.854;8.830;2022-11-15T06:05:59;9.20;32.30
2030;DHT22;1020;48.854;8.830;2022-11-15T06:08:25;9.20;38.00
2030;DHT22;1020;48.854;8.830;2022-11-15T06:10:52;9.20;43.90
2030;DHT22;1020;48.854;8.830;2022-11-15T06:13:19;9.20;34.20
2030;DHT22;1020;48.854;8.830;2022-11-15T06:15:46;9.30;35.10
2030;DHT22;1020;48.854;8.830;2022-11-15T06:18:14;9.20;40.10
2030;DHT22;1020;48.854;8.830;2022-11-15T06:20:40;9.20;42.60
2030;DHT22;1020;48.854;8.830;2022-11-15T06:23:07;9.10;49.20
2030;DHT22;1020;48.854;8.830;2022-11-15T06:25:34;9.20;49.30
2030;DHT22;1020;48.854;8.830;2022-11-15T06:28:01;9.20;47.10
2030;DHT22;1020;48.854;8.830;2022-11-15T06:30:27;9.20;48.40
2030;DHT22;1020;48.854;8.830;2022-11-15T06:33:04;9.20;48.10
2030;DHT22;1020;48.854;8.830;2022-11-15T06:35:34;9.10;56.70
2030;DHT22;1020;48.854;8.830;2022-11-15T06:38:03;9.10;61.80
2030;DHT22;1020;48.854;8.830;2022-11-15T06:40:30;9.10;61.50
2030;DHT22;1020;48.854;8.830;2022-11-15T06:42:58;9.10;57.40
2030;DHT22;1020;48.854;8.830;2022-11-15T06:45:24;9.10;63.80
2030;DHT22;1020;48.854;8.830;2022-11-15T06:47:51;9.10;68.50
2030;DHT22;1020;48.854;8.830;2022-11-15T06:50:18;9.10;76.40
2030;DHT22;1020;48.854;8.830;2022-11-15T06:52:46;9.20;68.90
2030;DHT22;1020;48.854;8.830;2022-11-15T06:55:13;9.20;67.30
2030;DHT22;1020;48.854;8.830;2022-11-15T06:57:47;9.20;66.40
2030;DHT22;1020;48.854;8.830;2022-11-15T07:00:15;9.20;69.70
2030;DHT22;1020;48.854;8.830;2022-11-15T07:02:42;9.40;65.40
2030;DHT22;1020;48.854;8.830;2022-11-15T07:05:08;9.50;41.80
2030;DHT22;1020;48.854;8.830;2022-11-15T07:07:35;9.50;52.50
2030;DHT22;1020;48.854;8.830;2022-11-15T07:10:04;9.50;34.80
2030;DHT22;1020;48.854;8.830;2022-11-15T07:12:32;9.40;36.70
2030;DHT22;1020;48.854;8.830;2022-11-15T07:14:58;9.30;39.70
2030;DHT22;1020;48.854;8.830;2022-11-15T07:17:25;9.40;52.60
2030;DHT22;1020;48.854;8.830;2022-11-15T07:19:52;9.30;57.80
2030;DHT22;1020;48.854;8.830;2022-11-15T07:22:19;9.30;45.20
2030;DHT22;1020;48.854;8.830;2022-11-15T07:24:45;9.60;42.10
2030;DHT22;1020;48.854;8.830;2022-11-15T07:27:14;9.70;20.50
2030;DHT22;1020;48.854;8.830;2022-11-15T07:29:40;9.90;31.80
2030;DHT22;1020;48.854;8.830;2022-11-15T07:32:07;10.80;11.10
2030;DHT22;1020;48.854;8.830;2022-11-15T07:34:35;11.60;1.00
2030;DHT22;1020;48.854;8.830;2022-11-15T07:37:02;12.20;99.90
2030;DHT22;1020;48.854;8.830;2022-11-15T07:39:28;12.10;99.90
2030;DHT22;1020;48.854;8.830;2022-11-15T07:41:55;11.90;99.90
2030;DHT22;1020;48.854;8.830;2022-11-15T07:44:37;11.80;1.00
2030;DHT22;1020;48.854;8.830;2022-11-15T07:47:04;11.60;1.00
2030;DHT22;1020;48.854;8.830;2022-11-15T07:49:31;11.00;1.00
2030;DHT22;1020;48.854;8.830;2022-11-15T07:52:00;10.90;1.00
2030;DHT22;1020;48.854;8.830;2022-11-15T07:54:31;10.90;1.00
2030;DHT22;1020;48.854;8.830;2022-11-15T07:56:58;10.80;1.00
2030;DHT22;1020;48.854;8.830;2022-11-15T07:59:25;10.80;1.00
2030;DHT22;1020;48.854;8.830;2022-11-15T08:01:53;11.10;1.00
2030;DHT22;1020;48.854;8.830;2022-11-15T08:04:19;11.50;1.00
2030;DHT22;1020;48.854;8.830;2022-11-15T08:06:46;11.80;1.00
2030;DHT22;1020;48.854;8.830;2022-11-15T08:09:13;11.80;1.00
2030;DHT22;1020;48.854;8.830;2022-11-15T08:11:40;11.50;1.00
2030;DHT22;1020;48.854;8.830;2022-11-15T08:14:07;11.50;1.00
2030;DHT22;1020;48.854;8.830;2022-11-15T08:16:33;11.60;1.00
2030;DHT22;1020;48.854;8.830;2022-11-15T08:19:02;11.70;1.00
2030;DHT22;1020;48.854;8.830;2022-11-15T08:21:28;11.80;1.00
2030;DHT22;1020;48.854;8.830;2022-11-15T08:23:55;12.20;1.00
2030;DHT22;1020;48.854;8.830;2022-11-15T08:26:22;12.30;99.90
2030;DHT22;1020;48.854;8.830;2022-11-15T08:28:50;12.40;99.90
2030;DHT22;1020;48.854;8.830;2022-11-15T08:31:18;12.20;1.00
2030;DHT22;1020;48.854;8.830;2022-11-15T08:33:45;12.00;1.00
2030;DHT22;1020;48.854;8.830;2022-11-15T08:36:14;11.80;1.00
2030;DHT22;1020;48.854;8.830;2022-11-15T08:38:41;11.70;1.00
2030;DHT22;1020;48.854;8.830;2022-11-15T08:41:12;11.70;1.00
2030;DHT22;1020;48.854;8.830;2022-11-15T08:43:39;11.70;1.00
2030;DHT22;1020;48.854;8.830;2022-11-15T08:46:07;11.70;1.00
2030;DHT22;1020;48.854;8.830;2022-11-15T08:48:35;11.80;1.00
2030;DHT22;1020;48.854;8.830;2022-11-15T08:51:02;11.70;1.00
2030;DHT22;1020;48.854;8.830;2022-11-15T08:53:30;11.80;1.00
2030;DHT22;1020;48.854;8.830;2022-11-15T08:55:57;12.00;1.00
2030;DHT22;1020;48.854;8.830;2022-11-15T08:58:23;12.00;1.00
2030;DHT22;1020;48.854;8.830;2022-11-15T09:00:50;11.90;1.00
2030;DHT22;1020;48.854;8.830;2022-11-15T09:03:17;12.00;1.00
2030;DHT22;1020;48.854;8.830;2022-11-15T09:05:44;12.00;1.00
2030;DHT22;1020;48.854;8.830;2022-11-15T09:08:11;12.00;1.00
2030;DHT22;1020;48.854;8.830;2022-11-15T09:10:39;12.20;1.00
2030;DHT22;1020;48.854;8.830;2022-11-15T09:13:06;12.00;1.00
2030;DHT22;1020;48.854;8.830;2022-11-15T09:15:33;12.30;1.00
2030;DHT22;1020;48.854;8.830;2022-11-15T09:17:59;12.50;1.00
2030;DHT22;1020;48.854;8.830;2022-11-15T09:20:26;12.50;1.00
2030;DHT22;1020;48.854;8.830;2022-11-15T09:22:53;12.90;1.00
2030;DHT22;1020;48.854;8.830;2022-11-15T09:25:20;13.10;99.90
2030;DHT22;1020;48.854;8.830;2022-11-15T09:27:48;13.30;99.90
2030;DHT22;1020;48.854;8.830;2022-11-15T09:30:15;13.40;99.90
2030;DHT22;1020;48.854;8.830;2022-11-15T09:32:42;13.20;99.90
2030;DHT22;1020;48.854;8.830;2022-11-15T09:35:09;13.00;99.90
2030;DHT22;1020;48.854;8.830;2022-11-15T09:37:36;13.10;99.90
2030;DHT22;1020;48.854;8.830;2022-11-15T09:40:03;12.90;99.90
2030;DHT22;1020;48.854;8.830;2022-11-15T09:42:49;12.90;99.90
2030;DHT22;1020;48.854;8.830;2022-11-15T09:45:22;12.70;1.00
2030;DHT22;1020;48.854;8.830;2022-11-15T09:50:50;12.50;1.00
2030;DHT22;1020;48.854;8.830;2022-11-15T09:53:24;12.60;1.00
2030;DHT22;1020;48.854;8.830;2022-11-15T09:55:58;12.60;1.00
2030;DHT22;1020;48.854;8.830;2022-11-15T09:58:33;12.60;1.00
2030;DHT22;1020;48.854;8.830;2022-11-15T10:01:06;12.50;1.00
2030;DHT22;1020;48.854;8.830;2022-11-15T10:03:35;12.40;1.00
2030;DHT22;1020;48.854;8.830;2022-11-15T10:06:05;12.40;1.00
2030;DHT22;1020;48.854;8.830;2022-11-15T10:08:45;12.50;1.00
2030;DHT22;1020;48.854;8.830;2022-11-15T10:11:17;12.50;1.00
2030;DHT22;1020;48.854;8.830;2022-11-15T10:13:48;12.40;1.00
2030;DHT22;1020;48.854;8.830;2022-11-15T10:16:31;12.50;1.00
2030;DHT22;1020;48.854;8.830;2022-11-15T10:19:09;12.50;1.00
2030;DHT22;1020;48.854;8.830;2022-11-15T10:21:49;12.60;1.00
2030;DHT22;1020;48.854;8.830;2022-11-15T10:24:20;12.70;1.00
2030;DHT22;1020;48.854;8.830;2022-11-15T10:26:50;12.70;1.00
2030;DHT22;1020;48.854;8.830;2022-11-15T10:29:23;12.60;1.00
2030;DHT22;1020;48.854;8.830;2022-11-15T10:31:50;12.70;1.00
2030;DHT22;1020;48.854;8.830;2022-11-15T10:34:19;12.70;1.00
2030;DHT22;1020;48.854;8.830;2022-11-15T10:36:53;12.70;1.00
2030;DHT22;1020;48.854;8.830;2022-11-15T10:39:21;12.80;1.00
2030;DHT22;1020;48.854;8.830;2022-11-15T10:41:47;12.80;1.00
2030;DHT22;1020;48.854;8.830;2022-11-15T10:44:24;12.80;1.00
2030;DHT22;1020;48.854;8.830;2022-11-15T10:47:22;12.70;1.00
2030;DHT22;1020;48.854;8.830;2022-11-15T10:49:58;12.80;1.00
2030;DHT22;1020;48.854;8.830;2022-11-15T10:52:25;12.70;1.00
2030;DHT22;1020;48.854;8.830;2022-11-15T10:54:55;12.70;1.00
2030;DHT22;1020;48.854;8.830;2022-11-15T10:57:24;12.60;1.00
2030;DHT22;1020;48.854;8.830;2022-11-15T10:59:54;12.50;1.00
2030;DHT22;1020;48.854;8.830;2022-11-15T11:02:31;12.40;1.00
2030;DHT22;1020;48.854;8.830;2022-11-15T11:04:59;12.40;1.00
2030;DHT22;1020;48.854;8.830;2022-11-15T11:07:27;12.40;1.00
2030;DHT22;1020;48.854;8.830;2022-11-15T11:09:59;12.50;1.00
2030;DHT22;1020;48.854;8.830;2022-11-15T11:12:29;12.50;1.00
2030;DHT22;1020;48.854;8.830;2022-11-15T11:14:59;12.60;1.00
2030;DHT22;1020;48.854;8.830;2022-11-15T11:17:36;12.60;1.00
2030;DHT22;1020;48.854;8.830;2022-11-15T11:20:12;12.60;1.00
2030;DHT22;1020;48.854;8.830;2022-11-15T11:22:49;12.60;1.00
2030;DHT22;1020;48.854;8.830;2022-11-15T11:25:26;12.70;1.00
2030;DHT22;1020;48.854;8.830;2022-11-15T11:28:04;12.80;1.00
2030;DHT22;1020;48.854;8.830;2022-11-15T11:30:42;12.80;1.00
2030;DHT22;1020;48.854;8.830;2022-11-15T11:33:16;12.90;1.00
2030;DHT22;1020;48.854;8.830;2022-11-15T11:36:08;13.00;1.00
2030;DHT22;1020;48.854;8.830;2022-11-15T11:38:48;13.10;1.00
2030;DHT22;1020;48.854;8.830;2022-11-15T11:41:24;13.20;1.00
2030;DHT22;1020;48.854;8.830;2022-11-15T11:43:59;13.30;99.90
2030;DHT22;1020;48.854;8.830;2022-11-15T11:46:45;13.40;1.00
2030;DHT22;1020;48.854;8.830;2022-11-15T11:49:18;13.50;99.90
2030;DHT22;1020;48.854;8.830;2022-11-15T11:51:50;13.50;99.90
2030;DHT22;1020;48.854;8.830;2022-11-15T11:54:22;13.50;99.90
2030;DHT22;1020;48.854;8.830;2022-11-15T11:56:53;13.40;99.90
2030;DHT22;1020;48.854;8.830;2022-11-15T11:59:31;13.50;99.90
2030;DHT22;1020;48.854;8.830;2022-11-15T12:02:13;13.50;99.90
2030;DHT22;1020;48.854;8.830;2022-11-15T12:04:45;13.60;99.90
2030;DHT22;1020;48.854;8.830;2022-11-15T12:07:19;13.50;99.90
2030;DHT22;1020;48.854;8.830;2022-11-15T12:12:18;13.40;99.90
2030;DHT22;1020;48.854;8.830;2022-11-15T12:14:51;13.40;99.90
2030;DHT22;1020;48.854;8.830;2022-11-15T12:17:22;13.50;99.90
2030;DHT22;1020;48.854;8.830;2022-11-15T12:19:49;13.50;99.90
2030;DHT22;1020;48.854;8.830;2022-11-15T12:22:20;13.40;99.90
2030;DHT22;1020;48.854;8.830;2022-11-15T12:24:55;13.40;1.00
2030;DHT22;1020;48.854;8.830;2022-11-15T12:27:30;13.40;1.00
2030;DHT22;1020;48.854;8.830;2022-11-15T12:29:59;13.50;1.00
2030;DHT22;1020;48.854;8.830;2022-11-15T12:32:32;13.40;1.00
2030;DHT22;1020;48.854;8.830;2022-11-15T12:35:01;13.50;1.00
2030;DHT22;1020;48.854;8.830;2022-11-15T12:37:50;13.50;1.00
2030;DHT22;1020;48.854;8.830;2022-11-15T12:40:25;13.40;1.00
2030;DHT22;1020;48.854;8.830;2022-11-15T12:46:02;13.50;1.00
2030;DHT22;1020;48.854;8.830;2022-11-15T12:48:58;13.50;1.00
2030;DHT22;1020;48.854;8.830;2022-11-15T12:57:35;13.80;99.90
2030;DHT22;1020;48.854;8.830;2022-11-15T13:03:21;13.80;99.90
2030;DHT22;1020;48.854;8.830;2022-11-15T13:05:56;13.90;1.00
2030;DHT22;1020;48.854;8.830;2022-11-15T13:08:44;13.90;99.90
2030;DHT22;1020;48.854;8.830;2022-11-15T13:11:44;14.00;1.00
2030;DHT22;1020;48.854;8.830;2022-11-15T13:14:50;13.90;99.90
2030;DHT22;1020;48.854;8.830;2022-11-15T13:17:24;13.80;99.90
2030;DHT22;1020;48.854;8.830;2022-11-15T13:19:59;13.90;1.00
2030;DHT22;1020;48.854;8.830;2022-11-15T13:22:27;14.00;1.00
2030;DHT22;1020;48.854;8.830;2022-11-15T13:25:16;13.90;99.90
2030;DHT22;1020;48.854;8.830;2022-11-15T13:27:46;14.00;99.90
2030;DHT22;1020;48.854;8.830;2022-11-15T13:30:18;13.90;99.90
2030;DHT22;1020;48.854;8.830;2022-11-15T13:32:46;13.90;99.90
2030;DHT22;1020;48.854;8.830;2022-11-15T13:35:19;13.90;99.90
2030;DHT22;1020;48.854;8.830;2022-11-15T13:37:47;14.00;99.90
2030;DHT22;1020;48.854;8.830;2022-11-15T13:40:24;13.90;1.00
2030;DHT22;1020;48.854;8.830;2022-11-15T13:42:53;14.00;99.90
2030;DHT22;1020;48.854;8.830;2022-11-15T13:45:20;14.00;99.90
2030;DHT22;1020;48.854;8.830;2022-11-15T13:47:53;14.00;99.90
2030;DHT22;1020;48.854;8.830;2022-11-15T13:50:26;14.00;99.90
2030;DHT22;1020;48.854;8.830;2022-11-15T13:52:56;13.90;99.90
2030;DHT22;1020;48.854;8.830;2022-11-15T13:55:24;13.90;99.90
2030;DHT22;1020;48.854;8.830;2022-11-15T13:57:54;13.80;99.90
2030;DHT22;1020;48.854;8.830;2022-11-15T14:00:27;13.70;1.00
2030;DHT22;1020;48.854;8.830;2022-11-15T14:02:57;13.80;99.90
2030;DHT22;1020;48.854;8.830;2022-11-15T14:05:33;13.60;1.00
2030;DHT22;1020;48.854;8.830;2022-11-15T14:08:03;13.60;1.00
2030;DHT22;1020;48.854;8.830;2022-11-15T14:10:32;13.60;1.00
2030;DHT22;1020;48.854;8.830;2022-11-15T14:12:59;13.50;1.00
2030;DHT22;1020;48.854;8.830;2022-11-15T14:15:30;14.70;1.00
2030;DHT22;1020;48.854;8.830;2022-11-15T14:17:57;13.50;1.00
2030;DHT22;1020;48.854;8.830;2022-11-15T14:20:30;13.40;1.00
2030;DHT22;1020;48.854;8.830;2022-11-15T14:23:00;13.40;1.00
2030;DHT22;1020;48.854;8.830;2022-11-15T14:25:28;13.20;1.00
2030;DHT22;1020;48.854;8.830;2022-11-15T14:28:14;13.20;1.00
2030;DHT22;1020;48.854;8.830;2022-11-15T14:30:42;13.20;1.00
2030;DHT22;1020;48.854;8.830;2022-11-15T14:33:22;13.00;1.00
2030;DHT22;1020;48.854;8.830;2022-11-15T14:35:49;13.00;1.00
2030;DHT22;1020;48.854;8.830;2022-11-15T14:38:18;13.00;1.00
2030;DHT22;1020;48.854;8.830;2022-11-15T14:40:44;12.90;1.00
2030;DHT22;1020;48.854;8.830;2022-11-15T14:43:12;12.80;1.00
2030;DHT22;1020;48.854;8.830;2022-11-15T14:45:39;12.90;1.00
2030;DHT22;1020;48.854;8.830;2022-11-15T14:48:06;12.80;1.00
2030;DHT22;1020;48.854;8.830;2022-11-15T14:50:34;12.80;1.00
2030;DHT22;1020;48.854;8.830;2022-11-15T14:53:02;12.80;1.00
2030;DHT22;1020;48.854;8.830;2022-11-15T14:55:31;12.70;1.00
2030;DHT22;1020;48.854;8.830;2022-11-15T14:58:00;12.70;1.00
2030;DHT22;1020;48.854;8.830;2022-11-15T15:00:28;12.60;1.00
2030;DHT22;1020;48.854;8.830;2022-11-15T15:02:55;12.60;1.00
2030;DHT22;1020;48.854;8.830;2022-11-15T15:05:25;12.50;1.00
2030;DHT22;1020;48.854;8.830;2022-11-15T15:07:52;12.50;1.00
2030;DHT22;1020;48.854;8.830;2022-11-15T15:10:20;12.50;1.00
2030;DHT22;1020;48.854;8.830;2022-11-15T15:12:48;12.50;1.00
2030;DHT22;1020;48.854;8.830;2022-11-15T15:15:17;12.50;1.00
2030;DHT22;1020;48.854;8.830;2022-11-15T15:17:45;12.60;1.00
2030;DHT22;1020;48.854;8.830;2022-11-15T15:20:12;12.50;1.00
2030;DHT22;1020;48.854;8.830;2022-11-15T15:22:39;12.50;1.00
2030;DHT22;1020;48.854;8.830;2022-11-15T15:25:21;12.40;1.00
2030;DHT22;1020;48.854;8.830;2022-11-15T15:27:49;12.30;1.00
2030;DHT22;1020;48.854;8.830;2022-11-15T15:30:17;12.40;1.00
2030;DHT22;1020;48.854;8.830;2022-11-15T15:32:43;12.30;1.00
2030;DHT22;1020;48.854;8.830;2022-11-15T15:35:12;12.30;1.50
2030;DHT22;1020;48.854;8.830;2022-11-15T15:37:39;12.30;4.60
2030;DHT22;1020;48.854;8.830;2022-11-15T15:40:11;12.30;8.30
2030;DHT22;1020;48.854;8.830;2022-11-15T15:42:39;12.20;11.40
2030;DHT22;1020;48.854;8.830;2022-11-15T15:45:08;12.20;14.60
2030;DHT22;1020;48.854;8.830;2022-11-15T15:47:35;12.20;19.40
2030;DHT22;1020;48.854;8.830;2022-11-15T15:50:03;12.20;19.10
2030;DHT22;1020;48.854;8.830;2022-11-15T15:52:30;12.10;22.00
2030;DHT22;1020;48.854;8.830;2022-11-15T15:54:57;12.10;21.50
2030;DHT22;1020;48.854;8.830;2022-11-15T15:57:23;12.20;20.20
2030;DHT22;1020;48.854;8.830;2022-11-15T15:59:50;12.20;15.00
2030;DHT22;1020;48.854;8.830;2022-11-15T16:02:18;12.20;9.50
2030;DHT22;1020;48.854;8.830;2022-11-15T16:04:45;12.20;12.00
2030;DHT22;1020;48.854;8.830;2022-11-15T16:07:16;12.20;9.10
2030;DHT22;1020;48.854;8.830;2022-11-15T16:09:43;12.20;6.50
2030;DHT22;1020;48.854;8.830;2022-11-15T16:12:29;12.10;1.00
2030;DHT22;1020;48.854;8.830;2022-11-15T16:14:57;12.20;1.00
2030;DHT22;1020;48.854;8.830;2022-11-15T16:17:33;12.20;1.00
2030;DHT22;1020;48.854;8.830;2022-11-15T16:20:02;12.20;1.00
2030;DHT22;1020;48.854;8.830;2022-11-15T16:22:28;12.20;1.00
2030;DHT22;1020;48.854;8.830;2022-11-15T16:24:55;12.20;1.00
2030;DHT22;1020;48.854;8.830;2022-11-15T16:27:22;12.20;1.00
2030;DHT22;1020;48.854;8.830;2022-11-15T16:29:49;12.20;1.00
2030;DHT22;1020;48.854;8.830;2022-11-15T16:32:16;12.20;1.00
2030;DHT22;1020;48.854;8.830;2022-11-15T16:34:44;12.20;1.00
2030;DHT22;1020;48.854;8.830;2022-11-15T16:37:21;12.20;1.00
2030;DHT22;1020;48.854;8.830;2022-11-15T16:39:48;12.20;1.00
2030;DHT22;1020;48.854;8.830;2022-11-15T16:42:15;12.30;1.00
2030;DHT22;1020;48.854;8.830;2022-11-15T16:44:42;12.30;1.00
2030;DHT22;1020;48.854;8.830;2022-11-15T16:47:15;12.30;1.00
2030;DHT22;1020;48.854;8.830;2022-11-15T16:49:44;12.20;1.00
2030;DHT22;1020;48.854;8.830;2022-11-15T16:52:11;12.20;1.00
2030;DHT22;1020;48.854;8.830;2022-11-15T16:54:38;12.20;1.00
2030;DHT22;1020;48.854;8.830;2022-11-15T16:57:05;12.10;1.00
2030;DHT22;1020;48.854;8.830;2022-11-15T16:59:31;12.10;1.00